createdAt,value
2018-08-13T00:01:47.237Z,2.60
2018-08-13T00:04:49.506Z,2.10
2018-08-13T00:07:51.830Z,1.53
2018-08-13T00:10:54.130Z,1.27
2018-08-13T00:13:56.415Z,1.10
2018-08-13T00:16:58.724Z,0.87
2018-08-13T00:20:01.034Z,1.80
2018-08-13T00:23:03.406Z,3.70
2018-08-13T00:26:05.698Z,1.00
2018-08-13T00:29:07.909Z,2.10
2018-08-13T00:32:10.162Z,1.27
2018-08-13T00:35:12.607Z,1.00
2018-08-13T00:38:14.796Z,1.03
2018-08-13T00:41:17.128Z,1.40
2018-08-13T00:44:19.397Z,1.80
2018-08-13T00:47:21.698Z,1.27
2018-08-13T00:50:23.975Z,1.63
2018-08-13T00:53:26.177Z,1.07
2018-08-13T00:56:29.104Z,1.03
2018-08-13T00:59:31.358Z,2.70
2018-08-13T01:02:33.523Z,1.00
2018-08-13T01:05:35.840Z,1.60
2018-08-13T01:08:38.063Z,5.73
2018-08-13T01:11:40.417Z,2.13
2018-08-13T01:14:43.665Z,2.03
2018-08-13T01:17:46.986Z,1.83
2018-08-13T01:20:49.912Z,1.33
2018-08-13T01:23:52.153Z,4.17
2018-08-13T01:26:54.488Z,2.17
2018-08-13T01:29:56.760Z,3.30
2018-08-13T01:32:58.986Z,3.27
2018-08-13T01:36:01.285Z,1.20
2018-08-13T01:39:05.110Z,2.77
2018-08-13T01:42:07.352Z,1.10
2018-08-13T01:45:11.777Z,1.47
2018-08-13T01:48:14.074Z,2.07
2018-08-13T01:51:17.151Z,1.50
2018-08-13T01:54:19.549Z,3.50
2018-08-13T01:57:21.890Z,1.23
2018-08-13T02:00:24.241Z,1.13
2018-08-13T02:03:26.556Z,0.90
2018-08-13T02:06:28.852Z,5.23
2018-08-13T02:09:34.778Z,3.57
2018-08-13T02:12:37.148Z,1.13
2018-08-13T02:15:39.402Z,1.60
2018-08-13T02:18:42.742Z,1.87
2018-08-13T02:21:45.077Z,1.87
2018-08-13T02:24:47.397Z,1.73
2018-08-13T02:27:49.668Z,2.20
2018-08-13T02:30:51.873Z,1.93
2018-08-13T02:33:54.165Z,3.73
2018-08-13T02:36:56.477Z,1.57
2018-08-13T02:39:58.761Z,2.07
2018-08-13T02:43:00.957Z,1.67
2018-08-13T02:46:03.347Z,1.07
2018-08-13T02:49:05.681Z,2.50
2018-08-13T02:52:08.008Z,4.63
2018-08-13T02:55:11.137Z,1.97
2018-08-13T02:58:13.375Z,1.60
2018-08-13T03:01:15.959Z,1.57
2018-08-13T03:04:18.260Z,2.97
2018-08-13T03:07:20.755Z,1.87
2018-08-13T03:10:24.106Z,2.93
2018-08-13T03:13:26.353Z,2.03
2018-08-13T03:16:28.574Z,1.50
2018-08-13T03:19:30.887Z,2.47
2018-08-13T03:22:33.100Z,2.73
2018-08-13T03:25:35.520Z,1.30
2018-08-13T03:28:38.012Z,4.17
2018-08-13T03:31:40.380Z,1.97
2018-08-13T03:34:42.642Z,2.30
2018-08-13T03:37:44.956Z,2.03
2018-08-13T03:40:47.309Z,2.00
2018-08-13T03:43:49.628Z,1.50
2018-08-13T03:46:51.881Z,1.57
2018-08-13T03:49:54.220Z,3.73
2018-08-13T03:52:56.447Z,2.63
2018-08-13T03:55:58.720Z,0.93
2018-08-13T03:59:00.977Z,1.43
2018-08-13T04:02:03.435Z,3.03
2018-08-13T04:05:06.220Z,2.80
2018-08-13T04:08:08.561Z,2.67
2018-08-13T04:11:10.933Z,2.40
2018-08-13T04:14:13.425Z,2.27
2018-08-13T04:17:15.817Z,2.73
2018-08-13T04:20:18.068Z,6.00
2018-08-13T04:23:20.386Z,1.27
2018-08-13T04:26:22.662Z,1.27
2018-08-13T04:29:25.590Z,3.97
2018-08-13T04:32:27.827Z,2.60
2018-08-13T04:35:30.099Z,1.93
2018-08-13T04:38:32.548Z,6.13
2018-08-13T04:41:35.056Z,5.03
2018-08-13T04:44:37.438Z,2.93
2018-08-13T04:47:40.625Z,3.93
2018-08-13T04:50:42.882Z,3.43
2018-08-13T04:53:45.148Z,5.23
2018-08-13T04:56:47.351Z,3.03
2018-08-13T04:59:49.602Z,2.50
2018-08-13T05:02:51.964Z,4.30
2018-08-13T05:05:54.341Z,3.83
2018-08-13T05:08:56.573Z,3.90
2018-08-13T05:11:58.910Z,4.43
2018-08-13T05:15:01.275Z,6.00
2018-08-13T05:18:03.570Z,2.47
2018-08-13T05:21:05.811Z,2.57
2018-08-13T05:24:08.108Z,5.00
2018-08-13T05:27:10.479Z,2.90
2018-08-13T05:30:13.176Z,2.30
2018-08-13T05:33:15.500Z,2.47
2018-08-13T05:36:17.804Z,3.13
2018-08-13T05:39:20.123Z,2.83
2018-08-13T05:42:22.462Z,2.63
2018-08-13T05:45:24.768Z,2.20
2018-08-13T05:48:27.207Z,3.90
2018-08-13T05:51:29.783Z,2.33
2018-08-13T05:54:32.208Z,1.40
2018-08-13T05:57:35.668Z,6.23
2018-08-13T06:00:38.704Z,11.43
2018-08-13T06:03:41.032Z,9.70
2018-08-13T06:06:43.295Z,10.73
2018-08-13T06:09:45.708Z,6.67
2018-08-13T06:12:48.166Z,8.60
2018-08-13T06:15:50.652Z,8.57
2018-08-13T06:18:53.105Z,22.20
2018-08-13T06:21:55.423Z,9.90
2018-08-13T06:24:57.734Z,11.93
2018-08-13T06:28:00.263Z,8.87
2018-08-13T06:31:02.606Z,10.33
2018-08-13T06:34:05.002Z,7.57
2018-08-13T06:37:07.307Z,6.70
2018-08-13T06:40:09.780Z,5.77
2018-08-13T06:43:15.489Z,7.40
2018-08-13T06:46:17.846Z,6.20
2018-08-13T06:49:20.186Z,11.90
2018-08-13T06:52:22.585Z,14.63
2018-08-13T06:55:25.835Z,14.90
2018-08-13T06:58:28.236Z,13.67
2018-08-13T07:01:31.524Z,10.43
2018-08-13T07:04:36.025Z,8.60
2018-08-13T07:07:39.997Z,12.80
2018-08-13T07:10:42.876Z,11.20
2018-08-13T07:13:45.186Z,10.30
2018-08-13T07:16:47.454Z,9.07
2018-08-13T07:19:51.732Z,9.30
2018-08-13T07:22:54.116Z,34.80
2018-08-13T07:25:56.382Z,10.47
2018-08-13T07:28:58.758Z,7.63
2018-08-13T07:32:01.048Z,7.53
2018-08-13T07:35:03.646Z,12.47
2018-08-13T07:38:06.799Z,8.80
2018-08-13T07:41:09.282Z,7.27
2018-08-13T07:44:13.798Z,9.00
2018-08-13T07:47:16.980Z,5.77
2018-08-13T07:50:21.337Z,4.70
2018-08-13T07:53:23.918Z,6.73
2018-08-13T07:56:26.189Z,9.43
2018-08-13T07:59:29.383Z,9.43
2018-08-13T08:02:31.790Z,7.47
2018-08-13T08:05:34.352Z,10.20
2018-08-13T08:08:36.564Z,10.53
2018-08-13T08:11:39.324Z,8.07
2018-08-13T08:14:41.622Z,11.17
2018-08-13T08:17:44.226Z,10.77
2018-08-13T08:20:46.597Z,8.40
2018-08-13T08:23:48.899Z,12.10
2018-08-13T08:26:51.246Z,11.23
2018-08-13T08:29:54.272Z,11.13
2018-08-13T08:32:56.550Z,15.33
2018-08-13T08:36:00.903Z,17.47
2018-08-13T08:39:08.484Z,13.50
2018-08-13T08:42:12.733Z,7.63
2018-08-13T08:45:19.066Z,4.70
2018-08-13T08:48:21.553Z,6.50
2018-08-13T08:51:31.874Z,4.43
2018-08-13T08:54:34.277Z,5.10
2018-08-13T08:57:36.546Z,5.37
2018-08-13T09:00:38.809Z,6.03
2018-08-13T09:03:41.993Z,6.50
2018-08-13T09:06:44.406Z,7.50
2018-08-13T09:09:46.764Z,4.97
2018-08-13T09:12:49.024Z,4.93
2018-08-13T09:15:51.311Z,4.93
2018-08-13T09:19:04.863Z,5.43
2018-08-13T09:22:18.492Z,6.50
2018-08-13T09:25:32.029Z,8.00
2018-08-13T09:28:45.454Z,5.80
2018-08-13T09:32:25.096Z,7.03
2018-08-13T09:35:34.726Z,8.43
2018-08-13T09:38:37.091Z,4.20
2018-08-13T09:41:39.413Z,9.03
2018-08-13T09:44:41.671Z,6.07
2018-08-13T09:47:45.516Z,5.47
2018-08-13T09:50:47.765Z,5.07
2018-08-13T09:53:50.091Z,2.87
2018-08-13T09:56:52.445Z,5.00
2018-08-13T09:59:54.977Z,2.37
2018-08-13T10:02:57.240Z,3.43
2018-08-13T10:05:59.559Z,2.50
2018-08-13T10:09:01.823Z,2.40
2018-08-13T10:12:04.306Z,2.00
2018-08-13T10:15:07.605Z,1.87
2018-08-13T10:18:09.894Z,1.50
2018-08-13T10:21:12.270Z,2.17
2018-08-13T10:24:14.470Z,2.73
2018-08-13T10:27:16.791Z,2.63
2018-08-13T10:30:19.208Z,4.23
2018-08-13T10:33:21.548Z,3.67
2018-08-13T10:36:24.028Z,2.87
2018-08-13T10:39:26.432Z,3.47
2018-08-13T10:42:28.665Z,3.07
2018-08-13T10:45:30.978Z,3.57
2018-08-13T10:48:33.176Z,2.60
2018-08-13T10:51:35.484Z,3.50
2018-08-13T10:54:37.754Z,3.80
2018-08-13T10:57:40.198Z,6.23
2018-08-13T11:00:42.806Z,3.37
2018-08-13T11:03:45.067Z,4.47
2018-08-13T11:06:47.363Z,5.37
2018-08-13T11:09:49.728Z,3.77
2018-08-13T11:12:51.964Z,5.83
2018-08-13T11:15:54.300Z,3.90
2018-08-13T11:18:56.480Z,4.10
2018-08-13T11:21:58.934Z,4.80
2018-08-13T11:25:01.188Z,5.13
2018-08-13T11:28:03.488Z,7.00
2018-08-13T11:31:06.657Z,5.00
2018-08-13T11:34:08.903Z,5.97
2018-08-13T11:37:11.199Z,4.30
2018-08-13T11:40:14.749Z,6.37
2018-08-13T11:43:16.985Z,5.23
2018-08-13T11:46:19.217Z,5.13
2018-08-13T11:49:21.416Z,4.37
2018-08-13T11:52:23.821Z,3.90
2018-08-13T11:55:25.999Z,3.53
2018-08-13T11:58:28.218Z,3.33
2018-08-13T12:01:31.654Z,3.30
2018-08-13T12:04:33.884Z,2.63
2018-08-13T12:07:36.140Z,3.60
2018-08-13T12:10:38.434Z,5.30
2018-08-13T12:13:40.749Z,3.07
2018-08-13T12:16:43.083Z,3.60
2018-08-13T12:19:45.342Z,4.27
2018-08-13T12:22:48.009Z,3.77
2018-08-13T12:25:51.064Z,4.07
2018-08-13T12:32:01.475Z,2.63
2018-08-13T12:35:04.405Z,2.73
2018-08-13T12:38:18.217Z,2.47
2018-08-13T12:41:20.599Z,2.23
2018-08-13T12:44:22.896Z,2.93
2018-08-13T12:47:26.015Z,2.50
2018-08-13T12:50:28.403Z,2.57
2018-08-13T12:53:30.791Z,2.57
2018-08-13T12:56:33.058Z,2.60
2018-08-13T12:59:35.975Z,2.03
2018-08-13T13:02:38.748Z,3.07
2018-08-13T13:05:41.073Z,3.23
2018-08-13T13:08:43.318Z,3.73
2018-08-13T13:11:46.581Z,3.07
2018-08-13T13:14:49.118Z,3.37
2018-08-13T13:17:51.378Z,1.80
2018-08-13T13:20:54.537Z,2.70
2018-08-13T13:23:56.816Z,1.93
2018-08-13T13:26:59.087Z,2.93
2018-08-13T13:30:01.988Z,2.30
2018-08-13T13:33:04.603Z,2.47
2018-08-13T13:36:07.000Z,2.13
2018-08-13T13:39:09.640Z,1.63
2018-08-13T13:42:11.942Z,2.70
2018-08-13T13:45:15.270Z,3.43
2018-08-13T13:48:18.106Z,1.73
2018-08-13T13:51:20.389Z,2.23
2018-08-13T13:54:22.636Z,1.30
2018-08-13T13:57:25.120Z,1.60
2018-08-13T14:00:27.336Z,2.90
2018-08-13T14:03:29.784Z,2.83
2018-08-13T14:06:32.025Z,3.60
2018-08-13T14:09:34.320Z,0.70
2018-08-13T14:12:36.668Z,1.77
2018-08-13T14:15:38.996Z,2.23
2018-08-13T14:18:41.319Z,1.40
2018-08-13T14:21:43.644Z,1.53
2018-08-13T14:24:45.900Z,1.20
2018-08-13T14:27:48.447Z,1.90
2018-08-13T14:30:50.662Z,2.27
2018-08-13T14:33:53.119Z,0.90
2018-08-13T14:36:55.386Z,1.80
2018-08-13T14:39:57.901Z,1.20
2018-08-13T14:43:00.133Z,1.60
2018-08-13T14:46:05.022Z,1.33
2018-08-13T14:49:07.350Z,0.90
2018-08-13T14:52:09.805Z,1.43
2018-08-13T14:55:13.036Z,1.80
2018-08-13T14:58:15.399Z,1.23
2018-08-13T15:01:17.588Z,2.00
2018-08-13T15:04:19.965Z,1.73
2018-08-13T15:07:22.424Z,2.30
2018-08-13T15:10:25.471Z,0.77
2018-08-13T15:13:27.813Z,0.83
2018-08-13T15:16:30.087Z,2.63
2018-08-13T15:19:32.389Z,1.07
2018-08-13T15:22:34.588Z,0.90
2018-08-13T15:25:37.008Z,1.63
2018-08-13T15:28:39.269Z,0.70
2018-08-13T15:31:41.611Z,1.50
2018-08-13T15:34:43.890Z,2.03
2018-08-13T15:37:46.879Z,2.67
2018-08-13T15:40:49.155Z,0.90
2018-08-13T15:43:51.564Z,1.60
2018-08-13T15:46:53.870Z,1.13
2018-08-13T15:49:56.235Z,1.50
2018-08-13T15:52:58.569Z,0.77
2018-08-13T15:56:00.864Z,0.60
2018-08-13T15:59:03.536Z,1.50
2018-08-13T16:02:06.810Z,0.70
2018-08-13T16:05:09.925Z,0.83
2018-08-13T16:08:12.183Z,1.33
2018-08-13T16:11:14.516Z,0.60
2018-08-13T16:14:17.501Z,0.80
2018-08-13T16:17:19.837Z,2.10
2018-08-13T16:20:22.201Z,2.00
2018-08-13T16:23:24.463Z,1.00
2018-08-13T16:26:27.417Z,2.20
2018-08-13T16:29:29.882Z,1.40
2018-08-13T16:32:32.117Z,1.77
2018-08-13T16:35:34.420Z,1.27
2018-08-13T16:38:36.853Z,0.90
2018-08-13T16:41:39.157Z,0.67
2018-08-13T16:44:41.550Z,0.30
2018-08-13T16:47:45.952Z,1.23
2018-08-13T16:50:53.026Z,1.70
2018-08-13T16:53:55.771Z,1.67
2018-08-13T16:56:58.076Z,0.30
2018-08-13T17:00:01.110Z,1.77
2018-08-13T17:03:03.526Z,1.33
2018-08-13T17:06:06.408Z,0.83
2018-08-13T17:09:09.596Z,1.33
2018-08-13T17:12:11.823Z,0.43
2018-08-13T17:15:14.097Z,1.03
2018-08-13T17:18:16.414Z,0.33
2018-08-13T17:21:19.666Z,0.77
2018-08-13T17:24:22.021Z,0.90
2018-08-13T17:27:24.398Z,1.27
2018-08-13T17:30:26.941Z,0.77
2018-08-13T17:33:29.253Z,1.20
2018-08-13T17:36:31.659Z,2.40
2018-08-13T17:39:35.296Z,0.63
2018-08-13T17:42:37.673Z,0.60
2018-08-13T17:48:57.741Z,4.37
2018-08-13T17:52:00.014Z,1.83
2018-08-13T17:55:02.385Z,3.70
2018-08-13T17:58:05.817Z,1.93
2018-08-13T18:01:08.102Z,2.87
2018-08-13T18:04:11.237Z,3.37
2018-08-13T18:07:13.572Z,1.70
2018-08-13T18:10:18.766Z,1.77
2018-08-13T18:13:21.206Z,0.90
2018-08-13T18:16:23.632Z,0.87
2018-08-13T18:19:25.974Z,0.53
2018-08-13T18:22:28.343Z,0.70
2018-08-13T18:25:30.660Z,1.63
2018-08-13T18:28:32.908Z,0.97
2018-08-13T18:31:35.154Z,1.90
2018-08-13T18:34:37.614Z,0.70
2018-08-13T18:37:40.148Z,1.27
2018-08-13T18:40:42.458Z,0.67
2018-08-13T18:43:44.712Z,1.90
2018-08-13T18:46:47.292Z,0.93
2018-08-13T18:49:49.673Z,0.43
2018-08-13T18:52:52.429Z,0.63
2018-08-13T18:55:54.796Z,0.30
2018-08-13T18:58:57.166Z,0.30
2018-08-13T19:01:59.420Z,1.13
2018-08-13T19:05:01.701Z,0.60
2018-08-13T19:08:04.066Z,1.00
2018-08-13T19:11:06.608Z,0.50
2018-08-13T19:14:08.845Z,0.37
2018-08-13T19:17:11.117Z,0.90
2018-08-13T19:20:14.552Z,0.50
2018-08-13T19:23:17.199Z,0.50
2018-08-13T19:26:19.487Z,2.10
2018-08-13T19:29:21.739Z,0.70
2018-08-13T19:32:24.145Z,0.73
2018-08-13T19:35:26.445Z,0.80
2018-08-13T19:38:28.823Z,1.10
2018-08-13T19:41:31.077Z,0.53
2018-08-13T19:44:33.428Z,1.03
2018-08-13T19:47:35.722Z,0.73
2018-08-13T19:50:37.981Z,1.43
2018-08-13T19:53:40.302Z,0.70
2018-08-13T19:56:42.538Z,1.00
2018-08-13T19:59:44.821Z,1.10
2018-08-13T20:02:47.784Z,0.40
2018-08-13T20:05:50.038Z,1.27
2018-08-13T20:08:52.331Z,0.83
2018-08-13T20:11:55.114Z,0.93
2018-08-13T20:14:57.290Z,1.90
2018-08-13T20:17:59.570Z,1.27
2018-08-13T20:21:01.862Z,0.93
2018-08-13T20:24:04.098Z,0.50
2018-08-13T20:27:06.346Z,3.50
2018-08-13T20:30:10.734Z,1.37
2018-08-13T20:33:13.031Z,1.23
2018-08-13T20:36:15.300Z,0.80
2018-08-13T20:39:17.560Z,0.83
2018-08-13T20:42:19.796Z,0.53
2018-08-13T20:45:22.287Z,1.20
2018-08-13T20:48:24.600Z,1.97
2018-08-13T20:51:27.044Z,3.13
2018-08-13T20:54:29.311Z,1.83
2018-08-13T20:57:32.484Z,1.20
2018-08-13T21:01:05.574Z,0.80
2018-08-13T21:04:07.885Z,1.60
2018-08-13T21:07:10.229Z,3.30
2018-08-13T21:10:14.293Z,3.03
2018-08-13T21:13:16.525Z,0.83
2018-08-13T21:16:18.912Z,1.80
2018-08-13T21:19:21.237Z,2.30
2018-08-13T21:22:23.568Z,0.93
2018-08-13T21:25:25.801Z,3.57
2018-08-13T21:28:28.120Z,1.20
2018-08-13T21:31:30.470Z,2.37
2018-08-13T21:34:32.780Z,2.87
2018-08-13T21:37:35.397Z,1.83
2018-08-13T21:40:37.677Z,1.70
2018-08-13T21:43:40.003Z,0.83
2018-08-13T21:46:42.329Z,2.03
2018-08-13T21:49:44.512Z,1.07
2018-08-13T21:52:47.418Z,1.93
2018-08-13T21:55:49.656Z,3.53
2018-08-13T21:58:51.910Z,1.63
2018-08-13T22:01:54.183Z,2.07
2018-08-13T22:04:56.440Z,2.17
2018-08-13T22:07:58.846Z,1.13
2018-08-13T22:11:01.171Z,0.90
2018-08-13T22:14:03.681Z,2.17
2018-08-13T22:17:05.955Z,1.17
2018-08-13T22:20:08.151Z,1.53
2018-08-13T22:23:10.515Z,1.60
2018-08-13T22:26:12.720Z,0.93
2018-08-13T22:29:14.948Z,1.67
2018-08-13T22:32:17.201Z,2.17
2018-08-13T22:35:19.454Z,1.67
2018-08-13T22:38:21.664Z,3.80
2018-08-13T22:41:23.871Z,4.00
2018-08-13T22:44:26.223Z,1.37
2018-08-13T22:47:28.534Z,1.70
2018-08-13T22:50:30.817Z,1.37
2018-08-13T22:53:33.134Z,1.23
2018-08-13T22:56:35.313Z,1.10
2018-08-13T22:59:37.554Z,1.33
2018-08-13T23:02:39.917Z,2.87
2018-08-13T23:05:42.204Z,2.10
2018-08-13T23:08:45.399Z,1.50
2018-08-13T23:11:47.854Z,1.60
2018-08-13T23:14:50.154Z,2.70
2018-08-13T23:17:52.850Z,1.53
2018-08-13T23:20:55.245Z,1.73
2018-08-13T23:23:57.577Z,2.43
2018-08-13T23:26:59.868Z,3.20
2018-08-13T23:30:02.176Z,2.20
2018-08-13T23:33:05.716Z,4.63
2018-08-13T23:36:07.974Z,2.13
2018-08-13T23:39:12.197Z,1.63
2018-08-13T23:42:14.423Z,1.90
2018-08-13T23:45:18.806Z,2.73
2018-08-13T23:48:21.119Z,3.60
2018-08-13T23:51:23.412Z,1.73
2018-08-13T23:54:25.628Z,2.20
2018-08-13T23:57:27.974Z,3.60
